sensor_id;sensor_type;location;lat;lon;timestamp;pressure;altitude;pressure_sealevel;temperature;humidity
73106;BME280;61559;50.476;15.588;2024-01-16T00:00:03;96021.98;;;-1.65;91.53
73106;BME280;61559;50.476;15.588;2024-01-16T00:02:35;96029.23;;;-1.64;91.50
73106;BME280;61559;50.476;15.588;2024-01-16T00:05:07;96032.27;;;-1.63;91.40
73106;BME280;61559;50.476;15.588;2024-01-16T00:07:40;96033.46;;;-1.61;91.19
73106;BME280;61559;50.476;15.588;2024-01-16T00:10:11;96035.16;;;-1.59;91.19
73106;BME280;61559;50.476;15.588;2024-01-16T00:12:42;96031.77;;;-1.58;91.26
73106;BME280;61559;50.476;15.588;2024-01-16T00:15:13;96030.14;;;-1.56;91.29
73106;BME280;61559;50.476;15.588;2024-01-16T00:17:45;96040.38;;;-1.54;91.00
73106;BME280;61559;50.476;15.588;2024-01-16T00:20:16;96043.54;;;-1.52;90.85
73106;BME280;61559;50.476;15.588;2024-01-16T00:22:48;96051.15;;;-1.51;90.83
73106;BME280;61559;50.476;15.588;2024-01-16T00:25:19;96057.40;;;-1.49;90.91
73106;BME280;61559;50.476;15.588;2024-01-16T00:27:51;96055.77;;;-1.48;90.81
73106;BME280;61559;50.476;15.588;2024-01-16T00:30:22;96059.45;;;-1.47;90.64
73106;BME280;61559;50.476;15.588;2024-01-16T00:32:53;96055.56;;;-1.46;90.63
73106;BME280;61559;50.476;15.588;2024-01-16T00:35:25;96056.51;;;-1.45;90.64
73106;BME280;61559;50.476;15.588;2024-01-16T00:37:56;96069.52;;;-1.44;90.85
73106;BME280;61559;50.476;15.588;2024-01-16T00:40:28;96077.77;;;-1.45;91.08
73106;BME280;61559;50.476;15.588;2024-01-16T00:42:59;96077.98;;;-1.45;91.10
73106;BME280;61559;50.476;15.588;2024-01-16T00:45:30;96085.00;;;-1.46;91.21
73106;BME280;61559;50.476;15.588;2024-01-16T00:48:01;96090.41;;;-1.47;91.83
73106;BME280;61559;50.476;15.588;2024-01-16T00:50:34;96093.95;;;-1.49;92.38
73106;BME280;61559;50.476;15.588;2024-01-16T00:53:05;96096.86;;;-1.52;93.05
73106;BME280;61559;50.476;15.588;2024-01-16T00:55:36;96100.09;;;-1.53;93.10
73106;BME280;61559;50.476;15.588;2024-01-16T00:58:07;96105.26;;;-1.54;93.31
73106;BME280;61559;50.476;15.588;2024-01-16T01:00:38;96112.48;;;-1.55;93.44
73106;BME280;61559;50.476;15.588;2024-01-16T01:03:10;96106.32;;;-1.56;93.82
73106;BME280;61559;50.476;15.588;2024-01-16T01:05:41;96105.52;;;-1.56;94.00
73106;BME280;61559;50.476;15.588;2024-01-16T01:08:11;96104.92;;;-1.58;94.02
73106;BME280;61559;50.476;15.588;2024-01-16T01:10:42;96102.91;;;-1.59;94.07
73106;BME280;61559;50.476;15.588;2024-01-16T01:13:13;96107.26;;;-1.59;94.12
73106;BME280;61559;50.476;15.588;2024-01-16T01:15:44;96115.34;;;-1.59;94.13
73106;BME280;61559;50.476;15.588;2024-01-16T01:18:16;96122.76;;;-1.60;93.97
73106;BME280;61559;50.476;15.588;2024-01-16T01:20:48;96123.16;;;-1.60;93.66
73106;BME280;61559;50.476;15.588;2024-01-16T01:23:19;96123.96;;;-1.59;92.79
73106;BME280;61559;50.476;15.588;2024-01-16T01:25:51;96131.77;;;-1.56;92.18
73106;BME280;61559;50.476;15.588;2024-01-16T01:28:22;96140.30;;;-1.55;91.77
73106;BME280;61559;50.476;15.588;2024-01-16T01:30:53;96144.17;;;-1.54;91.22
73106;BME280;61559;50.476;15.588;2024-01-16T01:33:25;96148.66;;;-1.53;90.93
73106;BME280;61559;50.476;15.588;2024-01-16T01:35:56;96146.59;;;-1.53;90.62
73106;BME280;61559;50.476;15.588;2024-01-16T01:38:27;96150.98;;;-1.52;90.21
73106;BME280;61559;50.476;15.588;2024-01-16T01:40:58;96158.75;;;-1.51;89.97
73106;BME280;61559;50.476;15.588;2024-01-16T01:43:29;96159.55;;;-1.51;89.65
73106;BME280;61559;50.476;15.588;2024-01-16T01:46:11;96164.30;;;-1.51;89.17
73106;BME280;61559;50.476;15.588;2024-01-16T01:48:43;96167.14;;;-1.53;88.76
73106;BME280;61559;50.476;15.588;2024-01-16T01:51:17;96168.48;;;-1.56;88.32
73106;BME280;61559;50.476;15.588;2024-01-16T01:53:50;96173.58;;;-1.59;88.18
73106;BME280;61559;50.476;15.588;2024-01-16T01:56:23;96178.96;;;-1.65;87.93
73106;BME280;61559;50.476;15.588;2024-01-16T01:58:56;96181.01;;;-1.70;87.86
73106;BME280;61559;50.476;15.588;2024-01-16T02:01:29;96180.97;;;-1.77;87.82
73106;BME280;61559;50.476;15.588;2024-01-16T02:04:03;96188.46;;;-1.84;87.45
73106;BME280;61559;50.476;15.588;2024-01-16T02:06:35;96188.18;;;-1.87;87.08
73106;BME280;61559;50.476;15.588;2024-01-16T02:09:06;96189.39;;;-1.89;86.85
73106;BME280;61559;50.476;15.588;2024-01-16T02:11:38;96200.77;;;-1.91;86.96
73106;BME280;61559;50.476;15.588;2024-01-16T02:14:08;96200.01;;;-1.93;87.07
73106;BME280;61559;50.476;15.588;2024-01-16T02:16:39;96205.21;;;-1.96;86.99
73106;BME280;61559;50.476;15.588;2024-01-16T02:19:11;96209.65;;;-1.99;87.21
73106;BME280;61559;50.476;15.588;2024-01-16T02:21:44;96209.36;;;-2.01;87.33
73106;BME280;61559;50.476;15.588;2024-01-16T02:24:20;96213.10;;;-2.05;87.34
73106;BME280;61559;50.476;15.588;2024-01-16T02:26:52;96216.09;;;-2.07;87.04
73106;BME280;61559;50.476;15.588;2024-01-16T02:29:24;96224.26;;;-2.07;87.11
73106;BME280;61559;50.476;15.588;2024-01-16T02:31:55;96225.83;;;-2.07;87.07
73106;BME280;61559;50.476;15.588;2024-01-16T02:34:27;96242.72;;;-2.06;87.03
73106;BME280;61559;50.476;15.588;2024-01-16T02:36:58;96234.14;;;-2.04;86.79
73106;BME280;61559;50.476;15.588;2024-01-16T02:39:30;96235.45;;;-2.01;86.73
73106;BME280;61559;50.476;15.588;2024-01-16T02:42:02;96244.88;;;-2.00;87.02
73106;BME280;61559;50.476;15.588;2024-01-16T02:44:33;96249.67;;;-2.01;87.49
73106;BME280;61559;50.476;15.588;2024-01-16T02:47:04;96247.01;;;-2.02;87.64
73106;BME280;61559;50.476;15.588;2024-01-16T02:49:37;96248.57;;;-2.04;87.91
73106;BME280;61559;50.476;15.588;2024-01-16T02:52:09;96254.13;;;-2.07;87.93
73106;BME280;61559;50.476;15.588;2024-01-16T02:54:41;96250.50;;;-2.08;88.04
73106;BME280;61559;50.476;15.588;2024-01-16T02:57:12;96251.51;;;-2.08;87.96
73106;BME280;61559;50.476;15.588;2024-01-16T02:59:46;96255.30;;;-2.09;88.24
73106;BME280;61559;50.476;15.588;2024-01-16T03:02:17;96256.41;;;-2.10;88.46
73106;BME280;61559;50.476;15.588;2024-01-16T03:04:48;96257.82;;;-2.11;88.58
73106;BME280;61559;50.476;15.588;2024-01-16T03:07:18;96260.65;;;-2.11;88.78
73106;BME280;61559;50.476;15.588;2024-01-16T03:09:49;96260.84;;;-2.11;88.85
73106;BME280;61559;50.476;15.588;2024-01-16T03:12:20;96268.71;;;-2.11;88.88
73106;BME280;61559;50.476;15.588;2024-01-16T03:14:52;96264.13;;;-2.12;88.71
73106;BME280;61559;50.476;15.588;2024-01-16T03:17:23;96266.99;;;-2.12;88.66
73106;BME280;61559;50.476;15.588;2024-01-16T03:19:55;96270.83;;;-2.12;88.87
73106;BME280;61559;50.476;15.588;2024-01-16T03:22:26;96272.70;;;-2.12;88.95
73106;BME280;61559;50.476;15.588;2024-01-16T03:24:58;96274.83;;;-2.12;88.90
73106;BME280;61559;50.476;15.588;2024-01-16T03:27:31;96284.55;;;-2.13;88.95
73106;BME280;61559;50.476;15.588;2024-01-16T03:30:05;96280.52;;;-2.15;88.88
73106;BME280;61559;50.476;15.588;2024-01-16T03:32:37;96281.64;;;-2.17;88.84
73106;BME280;61559;50.476;15.588;2024-01-16T03:35:09;96283.30;;;-2.19;88.59
73106;BME280;61559;50.476;15.588;2024-01-16T03:37:41;96290.77;;;-2.20;88.58
73106;BME280;61559;50.476;15.588;2024-01-16T03:40:13;96290.66;;;-2.20;88.86
73106;BME280;61559;50.476;15.588;2024-01-16T03:42:44;96291.72;;;-2.19;88.96
73106;BME280;61559;50.476;15.588;2024-01-16T03:45:14;96291.67;;;-2.17;88.88
73106;BME280;61559;50.476;15.588;2024-01-16T03:47:46;96292.92;;;-2.16;89.02
73106;BME280;61559;50.476;15.588;2024-01-16T03:50:20;96291.21;;;-2.14;89.25
73106;BME280;61559;50.476;15.588;2024-01-16T03:52:51;96294.39;;;-2.13;89.99
73106;BME280;61559;50.476;15.588;2024-01-16T03:55:22;96298.58;;;-2.13;90.33
73106;BME280;61559;50.476;15.588;2024-01-16T03:57:53;96301.45;;;-2.14;90.51
73106;BME280;61559;50.476;15.588;2024-01-16T04:00:24;96310.29;;;-2.15;90.72
73106;BME280;61559;50.476;15.588;2024-01-16T04:02:56;96306.05;;;-2.16;90.70
73106;BME280;61559;50.476;15.588;2024-01-16T04:05:25;96304.98;;;-2.16;90.75
73106;BME280;61559;50.476;15.588;2024-01-16T04:07:57;96307.31;;;-2.17;90.89
73106;BME280;61559;50.476;15.588;2024-01-16T04:10:29;96312.52;;;-2.16;90.77
73106;BME280;61559;50.476;15.588;2024-01-16T04:13:02;96316.73;;;-2.16;90.64
73106;BME280;61559;50.476;15.588;2024-01-16T04:15:35;96315.17;;;-2.14;90.55
73106;BME280;61559;50.476;15.588;2024-01-16T04:18:08;96314.92;;;-2.13;90.45
73106;BME280;61559;50.476;15.588;2024-01-16T04:20:40;96312.95;;;-2.11;90.25
73106;BME280;61559;50.476;15.588;2024-01-16T04:23:11;96318.80;;;-2.09;90.15
73106;BME280;61559;50.476;15.588;2024-01-16T04:25:42;96315.88;;;-2.08;90.11
73106;BME280;61559;50.476;15.588;2024-01-16T04:28:14;96323.09;;;-2.07;89.97
73106;BME280;61559;50.476;15.588;2024-01-16T04:30:45;96326.16;;;-2.06;89.86
73106;BME280;61559;50.476;15.588;2024-01-16T04:33:15;96329.14;;;-2.06;89.67
73106;BME280;61559;50.476;15.588;2024-01-16T04:35:47;96337.73;;;-2.05;89.53
73106;BME280;61559;50.476;15.588;2024-01-16T04:38:18;96342.81;;;-2.05;89.27
73106;BME280;61559;50.476;15.588;2024-01-16T04:40:49;96342.27;;;-2.03;89.21
73106;BME280;61559;50.476;15.588;2024-01-16T04:43:21;96335.49;;;-2.03;89.18
73106;BME280;61559;50.476;15.588;2024-01-16T04:45:52;96339.19;;;-2.03;89.11
73106;BME280;61559;50.476;15.588;2024-01-16T04:48:23;96345.45;;;-2.04;89.31
73106;BME280;61559;50.476;15.588;2024-01-16T04:50:53;96348.57;;;-2.03;89.12
73106;BME280;61559;50.476;15.588;2024-01-16T04:53:24;96349.12;;;-2.02;89.17
73106;BME280;61559;50.476;15.588;2024-01-16T04:55:55;96351.64;;;-2.01;89.08
73106;BME280;61559;50.476;15.588;2024-01-16T04:58:26;96357.64;;;-2.00;89.15
73106;BME280;61559;50.476;15.588;2024-01-16T05:00:57;96361.38;;;-1.99;89.21
73106;BME280;61559;50.476;15.588;2024-01-16T05:03:29;96361.23;;;-1.99;89.69
73106;BME280;61559;50.476;15.588;2024-01-16T05:06:00;96362.54;;;-2.00;89.90
73106;BME280;61559;50.476;15.588;2024-01-16T05:08:31;96371.27;;;-2.01;90.30
73106;BME280;61559;50.476;15.588;2024-01-16T05:11:03;96376.86;;;-2.03;90.55
73106;BME280;61559;50.476;15.588;2024-01-16T05:13:34;96384.43;;;-2.04;90.57
73106;BME280;61559;50.476;15.588;2024-01-16T05:16:06;96381.66;;;-2.06;90.79
73106;BME280;61559;50.476;15.588;2024-01-16T05:18:37;96379.49;;;-2.07;90.81
73106;BME280;61559;50.476;15.588;2024-01-16T05:21:12;96384.54;;;-2.07;90.74
73106;BME280;61559;50.476;15.588;2024-01-16T05:23:43;96388.41;;;-2.07;90.62
73106;BME280;61559;50.476;15.588;2024-01-16T05:26:14;96382.32;;;-2.06;90.47
73106;BME280;61559;50.476;15.588;2024-01-16T05:28:46;96386.61;;;-2.07;90.31
73106;BME280;61559;50.476;15.588;2024-01-16T05:31:17;96397.50;;;-2.07;90.29
73106;BME280;61559;50.476;15.588;2024-01-16T05:33:49;96405.11;;;-2.07;90.19
73106;BME280;61559;50.476;15.588;2024-01-16T05:36:20;96404.66;;;-2.09;89.99
73106;BME280;61559;50.476;15.588;2024-01-16T05:38:51;96405.52;;;-2.10;89.81
73106;BME280;61559;50.476;15.588;2024-01-16T05:41:21;96404.77;;;-2.10;89.82
73106;BME280;61559;50.476;15.588;2024-01-16T05:43:53;96410.63;;;-2.10;89.80
73106;BME280;61559;50.476;15.588;2024-01-16T05:46:24;96414.80;;;-2.09;89.88
73106;BME280;61559;50.476;15.588;2024-01-16T05:48:55;96412.64;;;-2.08;89.78
73106;BME280;61559;50.476;15.588;2024-01-16T05:51:29;96408.19;;;-2.09;89.86
73106;BME280;61559;50.476;15.588;2024-01-16T05:54:00;96412.38;;;-2.10;89.89
73106;BME280;61559;50.476;15.588;2024-01-16T05:56:33;96416.01;;;-2.09;90.08
73106;BME280;61559;50.476;15.588;2024-01-16T05:59:03;96422.92;;;-2.07;90.30
73106;BME280;61559;50.476;15.588;2024-01-16T06:01:34;96430.20;;;-2.07;90.63
73106;BME280;61559;50.476;15.588;2024-01-16T06:04:05;96429.17;;;-2.07;90.81
73106;BME280;61559;50.476;15.588;2024-01-16T06:06:37;96431.35;;;-2.07;90.98
73106;BME280;61559;50.476;15.588;2024-01-16T06:09:07;96435.99;;;-2.08;91.01
73106;BME280;61559;50.476;15.588;2024-01-16T06:11:38;96441.08;;;-2.09;90.95
73106;BME280;61559;50.476;15.588;2024-01-16T06:14:10;96445.11;;;-2.10;90.93
73106;BME280;61559;50.476;15.588;2024-01-16T06:16:42;96442.29;;;-2.10;90.86
73106;BME280;61559;50.476;15.588;2024-01-16T06:19:14;96436.20;;;-2.11;90.92
73106;BME280;61559;50.476;15.588;2024-01-16T06:21:46;96447.84;;;-2.10;90.88
73106;BME280;61559;50.476;15.588;2024-01-16T06:24:17;96451.78;;;-2.11;90.80
73106;BME280;61559;50.476;15.588;2024-01-16T06:26:48;96457.13;;;-2.11;90.79
73106;BME280;61559;50.476;15.588;2024-01-16T06:29:19;96460.11;;;-2.09;90.81
73106;BME280;61559;50.476;15.588;2024-01-16T06:32:01;96462.02;;;-2.09;90.81
73106;BME280;61559;50.476;15.588;2024-01-16T06:34:33;96464.95;;;-2.10;90.96
73106;BME280;61559;50.476;15.588;2024-01-16T06:37:04;96462.42;;;-2.11;91.25
73106;BME280;61559;50.476;15.588;2024-01-16T06:39:36;96468.13;;;-2.11;91.43
73106;BME280;61559;50.476;15.588;2024-01-16T06:42:10;96470.73;;;-2.13;91.56
73106;BME280;61559;50.476;15.588;2024-01-16T06:44:41;96475.08;;;-2.14;91.76
73106;BME280;61559;50.476;15.588;2024-01-16T06:47:11;96475.52;;;-2.16;91.65
73106;BME280;61559;50.476;15.588;2024-01-16T06:49:42;96478.40;;;-2.19;91.46
73106;BME280;61559;50.476;15.588;2024-01-16T06:52:13;96487.67;;;-2.21;91.45
73106;BME280;61559;50.476;15.588;2024-01-16T06:54:44;96485.44;;;-2.24;91.29
73106;BME280;61559;50.476;15.588;2024-01-16T06:57:15;96492.26;;;-2.25;91.31
73106;BME280;61559;50.476;15.588;2024-01-16T06:59:47;96499.02;;;-2.23;91.32
73106;BME280;61559;50.476;15.588;2024-01-16T07:02:18;96505.67;;;-2.22;91.25
73106;BME280;61559;50.476;15.588;2024-01-16T07:04:49;96509.57;;;-2.20;91.43
73106;BME280;61559;50.476;15.588;2024-01-16T07:07:20;96511.85;;;-2.18;91.27
73106;BME280;61559;50.476;15.588;2024-01-16T07:09:51;96514.02;;;-2.17;91.39
73106;BME280;61559;50.476;15.588;2024-01-16T07:12:22;96522.55;;;-2.16;91.59
73106;BME280;61559;50.476;15.588;2024-01-16T07:14:53;96524.46;;;-2.15;91.69
73106;BME280;61559;50.476;15.588;2024-01-16T07:17:24;96524.20;;;-2.15;91.73
73106;BME280;61559;50.476;15.588;2024-01-16T07:19:56;96529.20;;;-2.14;91.82
73106;BME280;61559;50.476;15.588;2024-01-16T07:22:28;96526.73;;;-2.14;91.92
73106;BME280;61559;50.476;15.588;2024-01-16T07:24:59;96524.83;;;-2.12;91.60
73106;BME280;61559;50.476;15.588;2024-01-16T07:27:31;96531.33;;;-2.11;91.67
73106;BME280;61559;50.476;15.588;2024-01-16T07:30:03;96536.67;;;-2.10;91.41
73106;BME280;61559;50.476;15.588;2024-01-16T07:32:35;96537.85;;;-2.09;91.62
73106;BME280;61559;50.476;15.588;2024-01-16T07:35:08;96537.30;;;-2.07;91.60
73106;BME280;61559;50.476;15.588;2024-01-16T07:37:39;96538.36;;;-2.05;91.48
73106;BME280;61559;50.476;15.588;2024-01-16T07:40:09;96541.54;;;-2.05;91.22
73106;BME280;61559;50.476;15.588;2024-01-16T07:42:42;96548.14;;;-2.04;91.24
73106;BME280;61559;50.476;15.588;2024-01-16T07:45:13;96555.57;;;-2.01;91.21
73106;BME280;61559;50.476;15.588;2024-01-16T07:47:44;96554.33;;;-1.97;91.02
73106;BME280;61559;50.476;15.588;2024-01-16T07:50:14;96554.67;;;-1.95;90.74
73106;BME280;61559;50.476;15.588;2024-01-16T07:52:45;96558.98;;;-1.93;90.73
73106;BME280;61559;50.476;15.588;2024-01-16T07:55:16;96559.53;;;-1.92;90.45
73106;BME280;61559;50.476;15.588;2024-01-16T07:57:53;96561.60;;;-1.91;90.36
73106;BME280;61559;50.476;15.588;2024-01-16T08:00:27;96562.56;;;-1.91;90.31
73106;BME280;61559;50.476;15.588;2024-01-16T08:02:58;96560.51;;;-1.88;90.07
73106;BME280;61559;50.476;15.588;2024-01-16T08:05:30;96561.02;;;-1.84;90.09
73106;BME280;61559;50.476;15.588;2024-01-16T08:08:01;96569.19;;;-1.82;89.84
73106;BME280;61559;50.476;15.588;2024-01-16T08:10:32;96574.05;;;-1.80;89.56
73106;BME280;61559;50.476;15.588;2024-01-16T08:13:04;96587.13;;;-1.77;89.54
73106;BME280;61559;50.476;15.588;2024-01-16T08:15:35;96591.05;;;-1.78;89.62
73106;BME280;61559;50.476;15.588;2024-01-16T08:18:07;96583.79;;;-1.78;89.53
73106;BME280;61559;50.476;15.588;2024-01-16T08:20:36;96585.66;;;-1.78;89.55
73106;BME280;61559;50.476;15.588;2024-01-16T08:23:08;96583.79;;;-1.79;89.39
73106;BME280;61559;50.476;15.588;2024-01-16T08:25:39;96586.67;;;-1.78;89.17
73106;BME280;61559;50.476;15.588;2024-01-16T08:28:11;96582.33;;;-1.75;88.95
73106;BME280;61559;50.476;15.588;2024-01-16T08:30:42;96585.30;;;-1.75;88.95
73106;BME280;61559;50.476;15.588;2024-01-16T08:33:13;96590.96;;;-1.77;88.63
73106;BME280;61559;50.476;15.588;2024-01-16T08:35:44;96594.59;;;-1.78;88.33
73106;BME280;61559;50.476;15.588;2024-01-16T08:38:16;96598.38;;;-1.76;88.07
73106;BME280;61559;50.476;15.588;2024-01-16T08:40:47;96607.05;;;-1.72;88.21
73106;BME280;61559;50.476;15.588;2024-01-16T08:43:18;96608.88;;;-1.70;88.27
73106;BME280;61559;50.476;15.588;2024-01-16T08:45:49;96608.43;;;-1.66;88.15
73106;BME280;61559;50.476;15.588;2024-01-16T08:48:20;96610.09;;;-1.65;87.94
73106;BME280;61559;50.476;15.588;2024-01-16T08:50:52;96619.73;;;-1.62;88.08
73106;BME280;61559;50.476;15.588;2024-01-16T08:53:24;96626.62;;;-1.58;88.06
73106;BME280;61559;50.476;15.588;2024-01-16T08:55:55;96629.36;;;-1.52;87.99
73106;BME280;61559;50.476;15.588;2024-01-16T08:58:26;96623.15;;;-1.49;87.86
73106;BME280;61559;50.476;15.588;2024-01-16T09:00:58;96628.56;;;-1.45;87.75
73106;BME280;61559;50.476;15.588;2024-01-16T09:03:29;96629.23;;;-1.39;87.85
73106;BME280;61559;50.476;15.588;2024-01-16T09:06:00;96631.70;;;-1.38;87.62
73106;BME280;61559;50.476;15.588;2024-01-16T09:08:32;96638.73;;;-1.37;87.81
73106;BME280;61559;50.476;15.588;2024-01-16T09:11:03;96637.77;;;-1.36;87.91
73106;BME280;61559;50.476;15.588;2024-01-16T09:13:34;96639.48;;;-1.33;87.90
73106;BME280;61559;50.476;15.588;2024-01-16T09:16:06;96639.84;;;-1.33;87.85
73106;BME280;61559;50.476;15.588;2024-01-16T09:18:37;96643.98;;;-1.33;87.78
73106;BME280;61559;50.476;15.588;2024-01-16T09:21:09;96643.34;;;-1.29;88.10
73106;BME280;61559;50.476;15.588;2024-01-16T09:23:40;96643.64;;;-1.26;88.11
73106;BME280;61559;50.476;15.588;2024-01-16T09:26:11;96642.98;;;-1.24;88.13
73106;BME280;61559;50.476;15.588;2024-01-16T09:28:42;96648.45;;;-1.20;88.08
73106;BME280;61559;50.476;15.588;2024-01-16T09:31:16;96649.01;;;-1.16;88.31
73106;BME280;61559;50.476;15.588;2024-01-16T09:33:47;96653.91;;;-1.18;87.90
73106;BME280;61559;50.476;15.588;2024-01-16T09:36:18;96655.52;;;-1.17;87.68
73106;BME280;61559;50.476;15.588;2024-01-16T09:38:49;96655.38;;;-1.16;87.56
73106;BME280;61559;50.476;15.588;2024-01-16T09:41:20;96651.68;;;-1.17;86.67
73106;BME280;61559;50.476;15.588;2024-01-16T09:43:51;96653.26;;;-1.15;85.77
73106;BME280;61559;50.476;15.588;2024-01-16T09:46:24;96651.19;;;-1.12;86.24
73106;BME280;61559;50.476;15.588;2024-01-16T09:48:57;96652.05;;;-1.11;85.47
73106;BME280;61559;50.476;15.588;2024-01-16T09:51:31;96646.19;;;-1.10;85.11
73106;BME280;61559;50.476;15.588;2024-01-16T09:54:02;96648.05;;;-1.08;84.27
73106;BME280;61559;50.476;15.588;2024-01-16T09:56:41;96645.59;;;-1.06;83.92
73106;BME280;61559;50.476;15.588;2024-01-16T09:59:16;96645.02;;;-1.08;84.08
73106;BME280;61559;50.476;15.588;2024-01-16T10:01:49;96643.81;;;-1.09;84.23
73106;BME280;61559;50.476;15.588;2024-01-16T10:04:22;96644.98;;;-1.09;84.33
73106;BME280;61559;50.476;15.588;2024-01-16T10:06:52;96647.10;;;-1.07;84.45
73106;BME280;61559;50.476;15.588;2024-01-16T10:09:25;96650.48;;;-1.04;84.40
73106;BME280;61559;50.476;15.588;2024-01-16T10:11:57;96653.48;;;-0.99;84.32
73106;BME280;61559;50.476;15.588;2024-01-16T10:14:30;96658.88;;;-0.94;84.36
73106;BME280;61559;50.476;15.588;2024-01-16T10:17:00;96662.12;;;-0.88;83.97
73106;BME280;61559;50.476;15.588;2024-01-16T10:19:35;96663.38;;;-0.87;83.69
73106;BME280;61559;50.476;15.588;2024-01-16T10:22:22;96666.40;;;-0.88;83.37
73106;BME280;61559;50.476;15.588;2024-01-16T10:25:07;96662.80;;;-0.85;83.49
73106;BME280;61559;50.476;15.588;2024-01-16T10:27:40;96664.55;;;-0.82;83.24
73106;BME280;61559;50.476;15.588;2024-01-16T10:30:12;96664.92;;;-0.74;83.16
73106;BME280;61559;50.476;15.588;2024-01-16T10:32:44;96665.48;;;-0.69;82.45
73106;BME280;61559;50.476;15.588;2024-01-16T10:35:16;96665.97;;;-0.64;81.75
73106;BME280;61559;50.476;15.588;2024-01-16T10:37:48;96673.45;;;-0.62;80.04
73106;BME280;61559;50.476;15.588;2024-01-16T10:40:20;96673.30;;;-0.55;79.88
73106;BME280;61559;50.476;15.588;2024-01-16T10:43:00;96685.67;;;-0.40;80.27
73106;BME280;61559;50.476;15.588;2024-01-16T10:45:31;96687.67;;;-0.25;79.45
73106;BME280;61559;50.476;15.588;2024-01-16T10:48:07;96690.09;;;-0.20;78.29
73106;BME280;61559;50.476;15.588;2024-01-16T10:50:39;96692.55;;;-0.14;78.19
73106;BME280;61559;50.476;15.588;2024-01-16T10:53:13;96687.26;;;-0.18;76.48
73106;BME280;61559;50.476;15.588;2024-01-16T10:55:51;96694.95;;;-0.18;76.48
73106;BME280;61559;50.476;15.588;2024-01-16T10:58:23;96692.77;;;-0.16;77.43
73106;BME280;61559;50.476;15.588;2024-01-16T11:00:56;96692.82;;;-0.18;78.09
73106;BME280;61559;50.476;15.588;2024-01-16T11:03:32;96694.30;;;-0.22;78.38
73106;BME280;61559;50.476;15.588;2024-01-16T11:06:07;96696.83;;;-0.26;79.11
73106;BME280;61559;50.476;15.588;2024-01-16T11:08:39;96699.67;;;-0.27;79.86
73106;BME280;61559;50.476;15.588;2024-01-16T11:11:11;96692.89;;;-0.28;79.60
73106;BME280;61559;50.476;15.588;2024-01-16T11:13:45;96699.26;;;-0.27;79.37
73106;BME280;61559;50.476;15.588;2024-01-16T11:16:17;96701.59;;;-0.27;77.82
73106;BME280;61559;50.476;15.588;2024-01-16T11:18:49;96704.07;;;-0.24;77.62
73106;BME280;61559;50.476;15.588;2024-01-16T11:21:21;96706.84;;;-0.19;76.63
73106;BME280;61559;50.476;15.588;2024-01-16T11:23:52;96708.38;;;-0.06;76.64
73106;BME280;61559;50.476;15.588;2024-01-16T11:26:31;96708.00;;;0.10;75.87
73106;BME280;61559;50.476;15.588;2024-01-16T11:29:36;96704.52;;;0.25;75.36
73106;BME280;61559;50.476;15.588;2024-01-16T11:32:08;96708.02;;;0.34;74.20
73106;BME280;61559;50.476;15.588;2024-01-16T11:34:56;96709.17;;;0.39;73.62
73106;BME280;61559;50.476;15.588;2024-01-16T11:37:29;96714.85;;;0.39;72.79
73106;BME280;61559;50.476;15.588;2024-01-16T11:40:23;96713.50;;;0.35;72.60
73106;BME280;61559;50.476;15.588;2024-01-16T11:42:56;96712.49;;;0.31;73.40
73106;BME280;61559;50.476;15.588;2024-01-16T11:45:50;96704.94;;;0.34;73.43
73106;BME280;61559;50.476;15.588;2024-01-16T11:48:22;96703.23;;;0.42;73.91
73106;BME280;61559;50.476;15.588;2024-01-16T11:50:53;96709.77;;;0.43;72.61
73106;BME280;61559;50.476;15.588;2024-01-16T11:53:38;96712.53;;;0.35;71.31
73106;BME280;61559;50.476;15.588;2024-01-16T11:56:38;96716.67;;;0.26;71.97
73106;BME280;61559;50.476;15.588;2024-01-16T11:59:40;96724.80;;;0.17;73.63
73106;BME280;61559;50.476;15.588;2024-01-16T12:02:20;96724.45;;;0.11;74.99
73106;BME280;61559;50.476;15.588;2024-01-16T12:04:56;96731.55;;;-0.02;76.63
73106;BME280;61559;50.476;15.588;2024-01-16T12:07:45;96730.37;;;-0.18;78.11
73106;BME280;61559;50.476;15.588;2024-01-16T12:10:17;96730.95;;;-0.33;79.05
73106;BME280;61559;50.476;15.588;2024-01-16T12:12:50;96732.21;;;-0.45;79.40
73106;BME280;61559;50.476;15.588;2024-01-16T12:15:22;96727.21;;;-0.57;80.29
73106;BME280;61559;50.476;15.588;2024-01-16T12:17:57;96732.77;;;-0.67;80.74
73106;BME280;61559;50.476;15.588;2024-01-16T12:20:31;96729.68;;;-0.74;80.90
73106;BME280;61559;50.476;15.588;2024-01-16T12:23:05;96730.19;;;-0.80;80.97
73106;BME280;61559;50.476;15.588;2024-01-16T12:25:37;96728.42;;;-0.89;81.12
73106;BME280;61559;50.476;15.588;2024-01-16T12:28:29;96732.66;;;-0.98;81.22
73106;BME280;61559;50.476;15.588;2024-01-16T12:31:03;96731.85;;;-1.03;81.86
73106;BME280;61559;50.476;15.588;2024-01-16T12:33:35;96736.17;;;-1.11;82.35
73106;BME280;61559;50.476;15.588;2024-01-16T12:36:07;96735.20;;;-1.17;82.91
73106;BME280;61559;50.476;15.588;2024-01-16T12:38:40;96736.04;;;-1.28;83.28
73106;BME280;61559;50.476;15.588;2024-01-16T12:41:12;96742.67;;;-1.37;83.66
73106;BME280;61559;50.476;15.588;2024-01-16T12:43:43;96741.30;;;-1.43;84.03
73106;BME280;61559;50.476;15.588;2024-01-16T12:46:19;96738.56;;;-1.45;84.33
73106;BME280;61559;50.476;15.588;2024-01-16T12:48:50;96744.62;;;-1.45;84.51
73106;BME280;61559;50.476;15.588;2024-01-16T12:51:32;96747.48;;;-1.46;84.69
73106;BME280;61559;50.476;15.588;2024-01-16T12:54:15;96734.52;;;-1.44;84.74
73106;BME280;61559;50.476;15.588;2024-01-16T12:56:57;96736.33;;;-1.31;85.39
73106;BME280;61559;50.476;15.588;2024-01-16T12:59:30;96733.33;;;-1.20;85.05
73106;BME280;61559;50.476;15.588;2024-01-16T13:02:01;96735.38;;;-1.10;84.55
73106;BME280;61559;50.476;15.588;2024-01-16T13:04:32;96734.63;;;-1.05;83.49
73106;BME280;61559;50.476;15.588;2024-01-16T13:07:06;96740.35;;;-1.00;83.02
73106;BME280;61559;50.476;15.588;2024-01-16T13:09:37;96739.80;;;-0.95;82.60
73106;BME280;61559;50.476;15.588;2024-01-16T13:12:09;96745.67;;;-0.91;82.40
73106;BME280;61559;50.476;15.588;2024-01-16T13:14:41;96746.88;;;-0.88;82.26
73106;BME280;61559;50.476;15.588;2024-01-16T13:17:12;96744.23;;;-0.85;82.39